Mount Sterling, KY

2:44 PM EDT on August 25, 2016 (GMT -0400)
Hinkston Pike | | Change Station

Elev 971 ft 38.07 °N, 83.94 °W | Updated 33 seconds ago

Scattered Clouds
Scattered Clouds
91.9 °F
Feels Like 105 °F
N
3.1
Wind Variable Wind from West
Gusts 7.5 mph

Today
High -- | Low -- °F
--% Chance of Precip.
Yesterday
High -- | Low -- °F
Precip. -- in
Pressure 30.09 in
Visibility 10.0 miles
Clouds Scattered Clouds 3900 ft
Heat Index 105 °F
Dew Point 77 °F
Humidity 61%
Rainfall 0.00 in
Snow Depth Not available.
6:59 AM 8:14 PM
Last Quarter, 43% visible
METAR KLEX 251754Z 24011G17KT 10SM SCT039 32/21 A3013 RMK AO2 SLP190 T03170211 10322 20233 58004
Pressure 30.09 in
Visibility 10.0 miles
Clouds Scattered Clouds 3900 ft
Heat Index 105 °F
Dew Point 77 °F
Humidity 61%
Rainfall 0.00 in
Snow Depth Not available.
6:59 AM 8:14 PM
Last Quarter, 43% visible
METAR KLEX 251754Z 24011G17KT 10SM SCT039 32/21 A3013 RMK AO2 SLP190 T03170211 10322 20233 58004
A tropical disturbance pushing toward the Bahamas, is expected to develop into a tropical depression or storm, and will likely target Florida and the Gulf Coast this weekend into next week.

Right now, the disturbance remains a broad area of low pressure pushing through the Dominican Republic and Haiti, headed toward the southeast Bahamas. Rainfall totals over 3 inches (with locally higher amounts) are expected in HispaƱiola, particularly over elevated terrain.

10-Day Weather Forecast

Almanac

Astronomy

Aug. 25, 2016 Rise Set
Actual Time
Civil Twilight
Nautical Twilight
Astronomical Twilight
Moon
Length of Visible Light
Length of Day
Tomorrow will be .
, % of the Moon is Illuminated

Today's Extremes

State Highs State Lows

Community

WunderPhotos

Upload Photos

1,934,890 photos uploaded!

WunderBlog® & News

Nearby

Air Quality

  Air Quality AQ Index Pollutant
Not available.

Snow Depth

Station Depth Elevation

Earthquake Activity

City Distance Mag. Time & Date
Minimum magnitude displayed is 2.5.

Coastal Water Temperatures

Place Temperature

Stations

Nearby Weather Stations

Station Location Temp. Windchill Dew Point Humidity Wind Precip. Elev Updated Type
                   

Watches & Warnings

There are currently no watches in effect.